x

Santa Monica Basin - 33nm Wsw Of Santa Monica, Ca (46025) Wave Buoy

6:50pm - Wed 29th Jul 2015 All times are PDT. -7 hours from GMT.

  • Sig Wave height 3.0ft
  • Swell Direction
  • Peak Period 15s
  • Average Period 6s
  • Wind
    11mph, 13mph gusts
  • Sea Temp 73°f
  • Air Temp 68°f
  • Sea Pressure 1012.9mb
  • Santa Monica Basin - 33nm Wsw Of Santa Monica, Ca
  • Santa Monica Basin - 33nm Wsw Of Santa Monica, Ca

More Historic Weather Station data

Upgrade to MSW Pro to gain access to the past 30 days of data for over 8000 Wavebouys and Weather Stations around the globe.

Join Pro

Comparision Forecast

View Surf forecast
   
Wed 07/29 6:50pm 3ft 15s 6s 11 13 mph 1012.9mb 73f 68f
5:50pm 3ft 16s 7s 11 13 mph 1012.9mb 73f 68f
4:50pm 3ft 15s 8s 11 13 mph 1012.8mb 73f 69f
3:50pm 3ft 16s 8s 9 11 mph 1013.5mb 73f 68f
2:50pm 3ft 16s 7s 9 11 mph 1014.2mb 73f 68f
1:50pm 3ft 15s 8s 7 9 mph 1014.6mb 73f 68f
12:50pm 3ft 16s 8s 2 4 mph 1014.9mb 73f 67f
11:50am 3ft 16s 8s 4 7 mph 1014.7mb 72f 67f
10:50am 3ft 16s 7s 4
mph
1014.6mb 71f 66f
8:50am 3ft 16s 7s 7 9 mph 1014mb 71f 66f
7:50am 3ft 16s 6s 7
mph
1013.6mb 71f 66f
6:50am 3.5ft 16s 7s 4 7 mph 1013.3mb 72f 67f
5:50am 3ft 16s 6s 2 4 mph 1013mb 72f 67f
4:50am 3.5ft 16s 7s 2 4 mph 1012.7mb 72f 67f
3:50am 3.5ft 16s 7s 2 4 mph 1012.5mb 72f 67f
2:50am 3.5ft 16s 7s  -  2 mph 1012.7mb 72f 67f
1:50am 3.5ft 16s 6s 2 4 mph 1013mb 72f 67f
12:50am 3ft 16s 6s 2 4 mph 1013.2mb 72f 67f
Tue 07/28 11:50pm 3.5ft 16s 6s 2
mph
1013.2mb 73f 67f
10:50pm 3.5ft 16s 6s 4 7 mph 1012.7mb 72f 67f
9:50pm 3.5ft 16s 6s 7 11 mph 1011.9mb 72f 67f
8:50pm 3.5ft 16s 7s 9 11 mph 1011.2mb 72f 67f
7:50pm 3.5ft 17s 8s 9 11 mph 1010.8mb 72f 68f
6:50pm 3.5ft 17s 7s 13
mph
1010.4mb 72f 68f
5:50pm 3.5ft 17s 7s 9 11 mph 1010.7mb 72f 69f
4:50pm 3.5ft 16s 8s 9 11 mph 1010.8mb 72f 69f
3:50pm 3.5ft 16s 7s 11 13 mph 1011.4mb 72f 68f
2:50pm 3.5ft 17s 7s 9 11 mph 1012.1mb 73f 68f
1:50pm 3.5ft 17s 8s 7 9 mph 1012.5mb 73f 68f
12:50pm 3.5ft 17s 7s 7 9 mph 1012.8mb 72f 67f
11:50am 3.5ft 17s 7s 7
mph
1012.9mb 72f 67f
10:50am 3.5ft 17s 7s 4 7 mph 1013mb 71f 67f
9:50am 3.5ft 17s 7s 9 11 mph 1012.9mb 71f 67f
8:50am 3.5ft 17s 7s 7 9 mph 1013mb 71f 67f
7:50am 3.5ft 17s 7s 9 13 mph 1012.7mb 71f 67f
6:50am 3.5ft 17s 7s 7 11 mph 1012.4mb 71f 66f
5:50am 3.5ft 17s 6s 7 11 mph 1012.1mb 70f 66f
4:50am 3.5ft 17s 7s 4 9 mph 1011.8mb 70f 65f
3:50am 3.5ft 17s 6s 4 9 mph 1011.7mb 71f 65f
2:50am 3.5ft 17s 6s 7 9 mph 1011.8mb 71f 66f
1:50am 3.5ft 17s 6s 4 7 mph 1011.9mb 71f 66f
12:50am 3.5ft 17s 6s 2 4 mph 1012.2mb 71f 66f
Mon 07/27 11:50pm 4ft 17s 6s  -  2 mph 1012.4mb 71f 66f
10:50pm 3.5ft 17s 6s 9 11 mph 1012.5mb 71f 66f
9:50pm 3.5ft 17s 6s 9 11 mph 1012.4mb 71f 66f
8:50pm 3.5ft 17s 5s 11 13 mph 1012mb 71f 67f
7:50pm 3.5ft 17s 5s 11 13 mph 1011.7mb 71f 67f
6:50pm 2.5ft 17s 5s 9 11 mph 1011.4mb 72f 67f
5:50pm 3ft 17s 6s 11 16 mph 1011.4mb 72f 67f
4:50pm 3ft 19s 6s 11 13 mph 1011.8mb 73f 68f
3:50pm 3ft 19s 7s 7 9 mph 1012.3mb 74f 70f
2:50pm 2.5ft 15s 6s 7 9 mph 1012.7mb 74f 70f
1:50pm 3ft 19s 6s 4 7 mph 1013.2mb 74f 69f
12:50pm 2.5ft 17s 6s 4 7 mph 1013.6mb 73f 69f
11:50am 2.5ft 17s 6s 4 7 mph 1013.9mb 72f 69f
10:50am 3ft 16s 6s 4 7 mph 1013.9mb 72f 70f
9:50am 3ft 19s 6s 2
mph
1014mb 71f 69f
8:50am 2.5ft 19s 6s 2 4 mph 1013.9mb 71f 69f
7:50am 3ft 14s 6s 7 11 mph 1013.4mb 71f 68f
6:50am 3ft 16s 6s 2 4 mph 1013.1mb 71f 66f
5:50am 3.5ft 17s 6s 4 7 mph 1012.7mb 71f 66f
4:50am 3.5ft 15s 6s 9 11 mph 1012.3mb 71f 66f
3:50am 4ft 17s 6s 7 9 mph 1012.3mb 71f 66f
2:50am 4ft 7s 6s 4 7 mph 1012.2mb 71f 66f
1:50am 4.5ft 6s 5s 4 7 mph 1012.4mb 72f 66f
12:50am 4.5ft 17s 5s 11 13 mph 1012.9mb 72f 66f
Sun 07/26 11:50pm 4.5ft 6s 5s 9 11 mph 1013mb 72f 67f
10:50pm 4.5ft 6s 5s 11 13 mph 1012.9mb 72f 67f
9:50pm 4.5ft 6s 5s 9 11 mph 1012.6mb 73f 67f
8:50pm 4.5ft 6s 5s 11 13 mph 1012.1mb 72f 67f
7:50pm 4.5ft 6s 5s 11 13 mph 1011.9mb 72f 68f
6:50pm 4ft 6s 5s 7 9 mph 1012mb 73f 69f
5:50pm 4ft 6s 5s 4 7 mph 1012.3mb 73f 69f
4:50pm 3.5ft 6s 5s 11 13 mph 1012.5mb 73f 68f
3:50pm 3.5ft 15s 5s 16 18 mph 1012.9mb 73f 67f
2:50pm 3.5ft 17s 6s 9 11 mph 1013.5mb 74f 68f
1:50pm 3.5ft 6s 5s 4 7 mph 1013.8mb 75f 68f
12:50pm 3.5ft 16s 6s 2 4 mph 1014.5mb 74f 68f
11:50am 4.5ft 6s 6s  -  2 mph 1014.8mb 73f 68f
10:50am 4.5ft 6s 6s 2
mph
1014.5mb 73f 68f
9:50am 4.5ft 6s 6s  -  2 mph 1014.3mb 72f 68f
8:50am 4.5ft 7s 6s 2 4 mph 1014.1mb 72f 67f
7:50am 4.5ft 7s 5s 4 7 mph 1013.7mb 72f 66f
6:50am 4.5ft 6s 5s 4 9 mph 1013.1mb 72f 68f
5:50am 4.5ft 7s 6s 9 11 mph 1012.4mb 72f 68f
4:50am 5ft 7s 6s 11 13 mph 1012mb 72f 67f
3:50am 4.5ft 6s 5s 13 16 mph 1012.1mb 72f 67f